sensor_id;sensor_type;location;lat;lon;timestamp;P1;durP1;ratioP1;P2;durP2;ratioP2
3379;SDS011;1703;51.964;7.642;2023-08-08T00:00:52;5.20;;;3.17;;
3379;SDS011;1703;51.964;7.642;2023-08-08T00:03:19;6.30;;;3.57;;
3379;SDS011;1703;51.964;7.642;2023-08-08T00:05:46;5.17;;;3.77;;
3379;SDS011;1703;51.964;7.642;2023-08-08T00:08:13;6.00;;;3.50;;
3379;SDS011;1703;51.964;7.642;2023-08-08T00:10:40;3.23;;;2.93;;
3379;SDS011;1703;51.964;7.642;2023-08-08T00:13:08;5.63;;;4.13;;
3379;SDS011;1703;51.964;7.642;2023-08-08T00:15:35;3.33;;;2.63;;
3379;SDS011;1703;51.964;7.642;2023-08-08T00:18:02;3.90;;;3.50;;
3379;SDS011;1703;51.964;7.642;2023-08-08T00:20:29;4.70;;;3.10;;
3379;SDS011;1703;51.964;7.642;2023-08-08T00:22:56;3.43;;;3.13;;
3379;SDS011;1703;51.964;7.642;2023-08-08T00:25:23;3.70;;;3.40;;
3379;SDS011;1703;51.964;7.642;2023-08-08T00:27:50;5.30;;;3.10;;
3379;SDS011;1703;51.964;7.642;2023-08-08T00:30:18;7.37;;;3.40;;
3379;SDS011;1703;51.964;7.642;2023-08-08T00:32:45;6.77;;;3.30;;
3379;SDS011;1703;51.964;7.642;2023-08-08T00:35:12;4.43;;;3.63;;
3379;SDS011;1703;51.964;7.642;2023-08-08T00:37:39;5.07;;;3.90;;
3379;SDS011;1703;51.964;7.642;2023-08-08T00:40:06;6.30;;;3.00;;
3379;SDS011;1703;51.964;7.642;2023-08-08T00:42:34;6.23;;;3.20;;
3379;SDS011;1703;51.964;7.642;2023-08-08T00:45:02;3.50;;;2.57;;
3379;SDS011;1703;51.964;7.642;2023-08-08T00:47:31;4.70;;;2.80;;
3379;SDS011;1703;51.964;7.642;2023-08-08T00:50:00;5.43;;;2.93;;
3379;SDS011;1703;51.964;7.642;2023-08-08T00:52:28;3.23;;;2.63;;
3379;SDS011;1703;51.964;7.642;2023-08-08T00:54:55;2.57;;;2.37;;
3379;SDS011;1703;51.964;7.642;2023-08-08T00:57:23;3.20;;;2.80;;
3379;SDS011;1703;51.964;7.642;2023-08-08T00:59:50;9.23;;;3.47;;
3379;SDS011;1703;51.964;7.642;2023-08-08T01:02:17;5.87;;;2.90;;
3379;SDS011;1703;51.964;7.642;2023-08-08T01:04:45;3.13;;;2.80;;
3379;SDS011;1703;51.964;7.642;2023-08-08T01:07:15;5.50;;;3.13;;
3379;SDS011;1703;51.964;7.642;2023-08-08T01:09:48;3.57;;;3.27;;
3379;SDS011;1703;51.964;7.642;2023-08-08T01:12:21;2.90;;;2.70;;
3379;SDS011;1703;51.964;7.642;2023-08-08T01:14:49;5.30;;;3.47;;
3379;SDS011;1703;51.964;7.642;2023-08-08T01:17:17;5.60;;;3.20;;
3379;SDS011;1703;51.964;7.642;2023-08-08T01:19:47;3.93;;;2.57;;
3379;SDS011;1703;51.964;7.642;2023-08-08T01:22:14;3.40;;;3.10;;
3379;SDS011;1703;51.964;7.642;2023-08-08T01:24:49;6.70;;;2.87;;
3379;SDS011;1703;51.964;7.642;2023-08-08T01:27:17;2.40;;;2.30;;
3379;SDS011;1703;51.964;7.642;2023-08-08T01:29:44;5.13;;;2.50;;
3379;SDS011;1703;51.964;7.642;2023-08-08T01:32:13;2.60;;;2.40;;
3379;SDS011;1703;51.964;7.642;2023-08-08T01:34:40;7.10;;;2.40;;
3379;SDS011;1703;51.964;7.642;2023-08-08T01:37:08;3.63;;;2.03;;
3379;SDS011;1703;51.964;7.642;2023-08-08T01:39:39;1.73;;;1.63;;
3379;SDS011;1703;51.964;7.642;2023-08-08T01:42:09;3.73;;;2.23;;
3379;SDS011;1703;51.964;7.642;2023-08-08T01:44:38;1.97;;;1.87;;
3379;SDS011;1703;51.964;7.642;2023-08-08T01:47:08;3.03;;;2.80;;
3379;SDS011;1703;51.964;7.642;2023-08-08T01:49:35;3.00;;;2.00;;
3379;SDS011;1703;51.964;7.642;2023-08-08T01:52:02;3.27;;;2.90;;
3379;SDS011;1703;51.964;7.642;2023-08-08T01:54:30;2.30;;;2.07;;
3379;SDS011;1703;51.964;7.642;2023-08-08T01:56:57;3.27;;;1.77;;
3379;SDS011;1703;51.964;7.642;2023-08-08T01:59:25;2.90;;;2.33;;
3379;SDS011;1703;51.964;7.642;2023-08-08T02:01:52;2.10;;;2.00;;
3379;SDS011;1703;51.964;7.642;2023-08-08T02:04:19;3.90;;;2.57;;
3379;SDS011;1703;51.964;7.642;2023-08-08T02:06:46;3.83;;;2.60;;
3379;SDS011;1703;51.964;7.642;2023-08-08T02:09:12;6.07;;;2.80;;
3379;SDS011;1703;51.964;7.642;2023-08-08T02:11:40;4.73;;;3.53;;
3379;SDS011;1703;51.964;7.642;2023-08-08T02:14:07;5.23;;;3.53;;
3379;SDS011;1703;51.964;7.642;2023-08-08T02:16:35;4.50;;;4.10;;
3379;SDS011;1703;51.964;7.642;2023-08-08T02:19:02;11.13;;;4.03;;
3379;SDS011;1703;51.964;7.642;2023-08-08T02:21:29;6.63;;;4.30;;
3379;SDS011;1703;51.964;7.642;2023-08-08T02:23:56;8.20;;;4.83;;
3379;SDS011;1703;51.964;7.642;2023-08-08T02:26:22;3.90;;;3.60;;
3379;SDS011;1703;51.964;7.642;2023-08-08T02:32:39;5.63;;;4.00;;
3379;SDS011;1703;51.964;7.642;2023-08-08T02:35:06;7.90;;;4.30;;
3379;SDS011;1703;51.964;7.642;2023-08-08T02:37:33;8.03;;;5.10;;
3379;SDS011;1703;51.964;7.642;2023-08-08T02:40:00;8.87;;;5.13;;
3379;SDS011;1703;51.964;7.642;2023-08-08T02:42:28;4.93;;;4.43;;
3379;SDS011;1703;51.964;7.642;2023-08-08T02:44:55;4.97;;;4.43;;
3379;SDS011;1703;51.964;7.642;2023-08-08T02:47:22;6.43;;;4.30;;
3379;SDS011;1703;51.964;7.642;2023-08-08T02:49:51;5.67;;;4.40;;
3379;SDS011;1703;51.964;7.642;2023-08-08T02:52:18;7.07;;;4.43;;
3379;SDS011;1703;51.964;7.642;2023-08-08T02:54:44;8.03;;;6.10;;
3379;SDS011;1703;51.964;7.642;2023-08-08T02:57:12;6.17;;;4.90;;
3379;SDS011;1703;51.964;7.642;2023-08-08T02:59:39;6.23;;;5.63;;
3379;SDS011;1703;51.964;7.642;2023-08-08T03:02:06;6.70;;;4.93;;
3379;SDS011;1703;51.964;7.642;2023-08-08T03:04:35;12.27;;;4.37;;
3379;SDS011;1703;51.964;7.642;2023-08-08T03:07:05;7.80;;;4.40;;
3379;SDS011;1703;51.964;7.642;2023-08-08T03:09:34;8.13;;;4.53;;
3379;SDS011;1703;51.964;7.642;2023-08-08T03:12:01;7.30;;;5.00;;
3379;SDS011;1703;51.964;7.642;2023-08-08T03:14:30;10.57;;;5.97;;
3379;SDS011;1703;51.964;7.642;2023-08-08T03:16:59;6.40;;;4.30;;
3379;SDS011;1703;51.964;7.642;2023-08-08T03:19:26;8.83;;;5.17;;
3379;SDS011;1703;51.964;7.642;2023-08-08T03:21:54;5.20;;;4.70;;
3379;SDS011;1703;51.964;7.642;2023-08-08T03:24:22;10.50;;;6.00;;
3379;SDS011;1703;51.964;7.642;2023-08-08T03:26:49;5.23;;;4.77;;
3379;SDS011;1703;51.964;7.642;2023-08-08T03:29:16;5.90;;;5.30;;
3379;SDS011;1703;51.964;7.642;2023-08-08T03:31:46;8.17;;;5.00;;
3379;SDS011;1703;51.964;7.642;2023-08-08T03:34:13;5.63;;;4.73;;
3379;SDS011;1703;51.964;7.642;2023-08-08T03:36:41;14.30;;;5.73;;
3379;SDS011;1703;51.964;7.642;2023-08-08T03:39:08;6.00;;;4.70;;
3379;SDS011;1703;51.964;7.642;2023-08-08T03:41:36;7.67;;;4.70;;
3379;SDS011;1703;51.964;7.642;2023-08-08T03:44:04;5.90;;;5.40;;
3379;SDS011;1703;51.964;7.642;2023-08-08T03:46:31;9.60;;;5.33;;
3379;SDS011;1703;51.964;7.642;2023-08-08T03:48:58;5.90;;;4.87;;
3379;SDS011;1703;51.964;7.642;2023-08-08T03:51:25;9.40;;;5.80;;
3379;SDS011;1703;51.964;7.642;2023-08-08T03:53:52;5.70;;;5.17;;
3379;SDS011;1703;51.964;7.642;2023-08-08T03:56:19;9.43;;;5.07;;
3379;SDS011;1703;51.964;7.642;2023-08-08T03:58:48;6.77;;;5.00;;
3379;SDS011;1703;51.964;7.642;2023-08-08T04:01:15;5.60;;;5.10;;
3379;SDS011;1703;51.964;7.642;2023-08-08T04:03:41;7.23;;;5.10;;
3379;SDS011;1703;51.964;7.642;2023-08-08T04:06:09;9.43;;;4.77;;
3379;SDS011;1703;51.964;7.642;2023-08-08T04:08:35;6.10;;;5.20;;
3379;SDS011;1703;51.964;7.642;2023-08-08T04:11:02;8.87;;;6.07;;
3379;SDS011;1703;51.964;7.642;2023-08-08T04:13:29;9.07;;;5.20;;
3379;SDS011;1703;51.964;7.642;2023-08-08T04:15:57;9.30;;;5.20;;
3379;SDS011;1703;51.964;7.642;2023-08-08T04:18:24;6.40;;;5.40;;
3379;SDS011;1703;51.964;7.642;2023-08-08T04:20:51;5.10;;;4.70;;
3379;SDS011;1703;51.964;7.642;2023-08-08T04:23:17;8.77;;;6.27;;
3379;SDS011;1703;51.964;7.642;2023-08-08T04:25:44;5.67;;;4.80;;
3379;SDS011;1703;51.964;7.642;2023-08-08T04:28:11;7.40;;;5.60;;
3379;SDS011;1703;51.964;7.642;2023-08-08T04:30:38;6.00;;;5.33;;
3379;SDS011;1703;51.964;7.642;2023-08-08T04:33:06;6.77;;;5.00;;
3379;SDS011;1703;51.964;7.642;2023-08-08T04:35:33;6.20;;;5.10;;
3379;SDS011;1703;51.964;7.642;2023-08-08T04:38:00;5.87;;;5.10;;
3379;SDS011;1703;51.964;7.642;2023-08-08T04:40:26;5.33;;;4.83;;
3379;SDS011;1703;51.964;7.642;2023-08-08T04:42:53;5.17;;;4.77;;
3379;SDS011;1703;51.964;7.642;2023-08-08T04:45:20;7.17;;;5.00;;
3379;SDS011;1703;51.964;7.642;2023-08-08T04:47:47;12.17;;;5.20;;
3379;SDS011;1703;51.964;7.642;2023-08-08T04:50:15;7.97;;;4.53;;
3379;SDS011;1703;51.964;7.642;2023-08-08T04:52:42;7.77;;;5.70;;
3379;SDS011;1703;51.964;7.642;2023-08-08T04:55:09;7.37;;;5.50;;
3379;SDS011;1703;51.964;7.642;2023-08-08T04:57:36;7.00;;;4.90;;
3379;SDS011;1703;51.964;7.642;2023-08-08T05:00:03;7.30;;;4.53;;
3379;SDS011;1703;51.964;7.642;2023-08-08T05:02:33;6.83;;;4.90;;
3379;SDS011;1703;51.964;7.642;2023-08-08T05:05:00;6.00;;;5.47;;
3379;SDS011;1703;51.964;7.642;2023-08-08T05:07:28;8.80;;;4.87;;
3379;SDS011;1703;51.964;7.642;2023-08-08T05:09:55;6.13;;;4.47;;
3379;SDS011;1703;51.964;7.642;2023-08-08T05:12:21;6.90;;;4.67;;
3379;SDS011;1703;51.964;7.642;2023-08-08T05:14:48;15.27;;;5.80;;
3379;SDS011;1703;51.964;7.642;2023-08-08T05:17:15;10.90;;;6.63;;
3379;SDS011;1703;51.964;7.642;2023-08-08T05:19:42;8.53;;;5.87;;
3379;SDS011;1703;51.964;7.642;2023-08-08T05:22:08;10.33;;;6.13;;
3379;SDS011;1703;51.964;7.642;2023-08-08T05:24:37;9.03;;;4.97;;
3379;SDS011;1703;51.964;7.642;2023-08-08T05:27:04;9.67;;;5.50;;
3379;SDS011;1703;51.964;7.642;2023-08-08T05:29:31;10.27;;;6.00;;
3379;SDS011;1703;51.964;7.642;2023-08-08T05:31:58;6.93;;;6.30;;
3379;SDS011;1703;51.964;7.642;2023-08-08T05:34:24;10.13;;;6.47;;
3379;SDS011;1703;51.964;7.642;2023-08-08T05:36:51;10.10;;;6.80;;
3379;SDS011;1703;51.964;7.642;2023-08-08T05:39:18;6.97;;;5.80;;
3379;SDS011;1703;51.964;7.642;2023-08-08T05:41:46;10.37;;;5.57;;
3379;SDS011;1703;51.964;7.642;2023-08-08T05:44:13;15.57;;;7.67;;
3379;SDS011;1703;51.964;7.642;2023-08-08T05:46:40;12.90;;;6.50;;
3379;SDS011;1703;51.964;7.642;2023-08-08T05:49:06;19.70;;;8.40;;
3379;SDS011;1703;51.964;7.642;2023-08-08T05:51:33;12.80;;;6.43;;
3379;SDS011;1703;51.964;7.642;2023-08-08T05:54:00;10.83;;;8.40;;
3379;SDS011;1703;51.964;7.642;2023-08-08T05:56:33;12.93;;;7.93;;
3379;SDS011;1703;51.964;7.642;2023-08-08T05:59:02;22.23;;;9.70;;
3379;SDS011;1703;51.964;7.642;2023-08-08T06:01:29;20.70;;;10.97;;
3379;SDS011;1703;51.964;7.642;2023-08-08T06:03:57;16.30;;;10.90;;
3379;SDS011;1703;51.964;7.642;2023-08-08T06:06:24;15.27;;;10.40;;
3379;SDS011;1703;51.964;7.642;2023-08-08T06:08:51;14.07;;;10.27;;
3379;SDS011;1703;51.964;7.642;2023-08-08T06:11:18;10.53;;;9.47;;
3379;SDS011;1703;51.964;7.642;2023-08-08T06:13:46;13.53;;;12.13;;
3379;SDS011;1703;51.964;7.642;2023-08-08T06:16:14;23.30;;;12.60;;
3379;SDS011;1703;51.964;7.642;2023-08-08T06:18:41;20.40;;;11.10;;
3379;SDS011;1703;51.964;7.642;2023-08-08T06:21:08;18.27;;;12.67;;
3379;SDS011;1703;51.964;7.642;2023-08-08T06:23:35;17.17;;;12.33;;
3379;SDS011;1703;51.964;7.642;2023-08-08T06:26:02;24.33;;;13.17;;
3379;SDS011;1703;51.964;7.642;2023-08-08T06:28:28;15.23;;;12.53;;
3379;SDS011;1703;51.964;7.642;2023-08-08T06:30:56;18.90;;;12.10;;
3379;SDS011;1703;51.964;7.642;2023-08-08T06:33:25;18.03;;;13.80;;
3379;SDS011;1703;51.964;7.642;2023-08-08T06:35:51;16.03;;;12.07;;
3379;SDS011;1703;51.964;7.642;2023-08-08T06:38:18;30.67;;;14.00;;
3379;SDS011;1703;51.964;7.642;2023-08-08T06:40:45;19.13;;;11.23;;
3379;SDS011;1703;51.964;7.642;2023-08-08T06:43:12;22.60;;;12.50;;
3379;SDS011;1703;51.964;7.642;2023-08-08T06:45:38;13.10;;;11.73;;
3379;SDS011;1703;51.964;7.642;2023-08-08T06:48:05;20.30;;;12.70;;
3379;SDS011;1703;51.964;7.642;2023-08-08T06:50:34;20.53;;;12.57;;
3379;SDS011;1703;51.964;7.642;2023-08-08T06:53:01;13.10;;;11.80;;
3379;SDS011;1703;51.964;7.642;2023-08-08T06:55:29;18.77;;;12.13;;
3379;SDS011;1703;51.964;7.642;2023-08-08T06:57:56;17.80;;;12.93;;
3379;SDS011;1703;51.964;7.642;2023-08-08T07:00:22;24.13;;;12.83;;
3379;SDS011;1703;51.964;7.642;2023-08-08T07:02:49;18.70;;;10.70;;
3379;SDS011;1703;51.964;7.642;2023-08-08T07:05:16;22.90;;;12.57;;
3379;SDS011;1703;51.964;7.642;2023-08-08T07:07:44;13.37;;;11.97;;
3379;SDS011;1703;51.964;7.642;2023-08-08T07:10:11;18.13;;;12.17;;
3379;SDS011;1703;51.964;7.642;2023-08-08T07:12:38;20.23;;;12.73;;
3379;SDS011;1703;51.964;7.642;2023-08-08T07:15:06;14.47;;;12.00;;
3379;SDS011;1703;51.964;7.642;2023-08-08T07:17:33;18.20;;;11.90;;
3379;SDS011;1703;51.964;7.642;2023-08-08T07:20:00;25.60;;;13.23;;
3379;SDS011;1703;51.964;7.642;2023-08-08T07:22:27;15.27;;;13.10;;
3379;SDS011;1703;51.964;7.642;2023-08-08T07:24:55;20.20;;;11.87;;
3379;SDS011;1703;51.964;7.642;2023-08-08T07:27:22;29.03;;;12.53;;
3379;SDS011;1703;51.964;7.642;2023-08-08T07:29:49;15.97;;;12.30;;
3379;SDS011;1703;51.964;7.642;2023-08-08T07:32:15;17.80;;;12.90;;
3379;SDS011;1703;51.964;7.642;2023-08-08T07:34:42;16.23;;;12.43;;
3379;SDS011;1703;51.964;7.642;2023-08-08T07:37:09;17.27;;;10.80;;
3379;SDS011;1703;51.964;7.642;2023-08-08T07:39:36;26.07;;;11.90;;
3379;SDS011;1703;51.964;7.642;2023-08-08T07:42:04;19.50;;;12.00;;
3379;SDS011;1703;51.964;7.642;2023-08-08T07:44:31;12.67;;;11.33;;
3379;SDS011;1703;51.964;7.642;2023-08-08T07:46:59;20.33;;;12.00;;
3379;SDS011;1703;51.964;7.642;2023-08-08T07:49:26;21.63;;;11.83;;
3379;SDS011;1703;51.964;7.642;2023-08-08T07:51:53;18.67;;;11.87;;
3379;SDS011;1703;51.964;7.642;2023-08-08T07:54:20;14.73;;;10.97;;
3379;SDS011;1703;51.964;7.642;2023-08-08T07:56:46;19.73;;;12.90;;
3379;SDS011;1703;51.964;7.642;2023-08-08T07:59:15;14.23;;;11.97;;
3379;SDS011;1703;51.964;7.642;2023-08-08T08:01:42;17.80;;;12.13;;
3379;SDS011;1703;51.964;7.642;2023-08-08T08:04:09;23.40;;;12.20;;
3379;SDS011;1703;51.964;7.642;2023-08-08T08:06:36;20.63;;;12.13;;
3379;SDS011;1703;51.964;7.642;2023-08-08T08:09:02;20.20;;;12.63;;
3379;SDS011;1703;51.964;7.642;2023-08-08T08:11:29;12.67;;;11.37;;
3379;SDS011;1703;51.964;7.642;2023-08-08T08:13:56;22.90;;;12.60;;
3379;SDS011;1703;51.964;7.642;2023-08-08T08:16:24;20.87;;;13.40;;
3379;SDS011;1703;51.964;7.642;2023-08-08T08:18:51;24.77;;;12.70;;
3379;SDS011;1703;51.964;7.642;2023-08-08T08:21:18;15.60;;;13.00;;
3379;SDS011;1703;51.964;7.642;2023-08-08T08:23:45;14.70;;;13.07;;
3379;SDS011;1703;51.964;7.642;2023-08-08T08:26:12;17.97;;;12.20;;
3379;SDS011;1703;51.964;7.642;2023-08-08T08:28:39;11.57;;;8.43;;
3379;SDS011;1703;51.964;7.642;2023-08-08T08:31:06;15.03;;;9.80;;
3379;SDS011;1703;51.964;7.642;2023-08-08T08:33:34;11.93;;;8.40;;
3379;SDS011;1703;51.964;7.642;2023-08-08T08:36:01;14.50;;;8.13;;
3379;SDS011;1703;51.964;7.642;2023-08-08T08:38:28;11.47;;;9.70;;
3379;SDS011;1703;51.964;7.642;2023-08-08T08:40:56;12.17;;;8.77;;
3379;SDS011;1703;51.964;7.642;2023-08-08T08:43:22;11.63;;;7.73;;
3379;SDS011;1703;51.964;7.642;2023-08-08T08:45:52;10.53;;;7.10;;
3379;SDS011;1703;51.964;7.642;2023-08-08T08:48:19;13.30;;;7.40;;
3379;SDS011;1703;51.964;7.642;2023-08-08T08:50:49;14.83;;;7.00;;
3379;SDS011;1703;51.964;7.642;2023-08-08T08:53:16;7.83;;;5.53;;
3379;SDS011;1703;51.964;7.642;2023-08-08T08:55:43;9.63;;;4.90;;
3379;SDS011;1703;51.964;7.642;2023-08-08T08:58:12;7.90;;;6.20;;
3379;SDS011;1703;51.964;7.642;2023-08-08T09:00:41;9.90;;;4.80;;
3379;SDS011;1703;51.964;7.642;2023-08-08T09:03:10;17.27;;;4.63;;
3379;SDS011;1703;51.964;7.642;2023-08-08T09:05:37;6.33;;;4.00;;
3379;SDS011;1703;51.964;7.642;2023-08-08T09:08:07;7.30;;;3.80;;
3379;SDS011;1703;51.964;7.642;2023-08-08T09:10:34;4.87;;;3.27;;
3379;SDS011;1703;51.964;7.642;2023-08-08T09:13:01;8.57;;;3.80;;
3379;SDS011;1703;51.964;7.642;2023-08-08T09:15:29;5.47;;;3.40;;
3379;SDS011;1703;51.964;7.642;2023-08-08T09:17:57;6.43;;;2.50;;
3379;SDS011;1703;51.964;7.642;2023-08-08T09:20:25;2.30;;;2.10;;
3379;SDS011;1703;51.964;7.642;2023-08-08T09:22:53;16.33;;;2.50;;
3379;SDS011;1703;51.964;7.642;2023-08-08T09:25:21;9.10;;;2.90;;
3379;SDS011;1703;51.964;7.642;2023-08-08T09:27:50;4.40;;;2.00;;
3379;SDS011;1703;51.964;7.642;2023-08-08T09:30:17;3.00;;;2.07;;
3379;SDS011;1703;51.964;7.642;2023-08-08T09:32:44;8.27;;;2.33;;
3379;SDS011;1703;51.964;7.642;2023-08-08T09:35:11;7.57;;;2.20;;
3379;SDS011;1703;51.964;7.642;2023-08-08T09:37:38;2.30;;;1.93;;
3379;SDS011;1703;51.964;7.642;2023-08-08T09:40:05;8.20;;;2.00;;
3379;SDS011;1703;51.964;7.642;2023-08-08T09:42:37;2.80;;;1.40;;
3379;SDS011;1703;51.964;7.642;2023-08-08T09:45:06;5.30;;;2.50;;
3379;SDS011;1703;51.964;7.642;2023-08-08T09:47:35;10.40;;;2.20;;
3379;SDS011;1703;51.964;7.642;2023-08-08T09:50:03;6.50;;;2.13;;
3379;SDS011;1703;51.964;7.642;2023-08-08T09:52:31;2.33;;;2.13;;
3379;SDS011;1703;51.964;7.642;2023-08-08T09:54:59;6.13;;;1.57;;
3379;SDS011;1703;51.964;7.642;2023-08-08T09:57:27;3.03;;;2.03;;
3379;SDS011;1703;51.964;7.642;2023-08-08T09:59:56;4.00;;;1.93;;
3379;SDS011;1703;51.964;7.642;2023-08-08T10:02:24;3.50;;;1.70;;
3379;SDS011;1703;51.964;7.642;2023-08-08T10:04:51;1.93;;;1.53;;
3379;SDS011;1703;51.964;7.642;2023-08-08T10:07:19;2.97;;;1.40;;
3379;SDS011;1703;51.964;7.642;2023-08-08T10:09:46;6.23;;;1.80;;
3379;SDS011;1703;51.964;7.642;2023-08-08T10:12:13;2.80;;;1.33;;
3379;SDS011;1703;51.964;7.642;2023-08-08T10:14:42;2.87;;;2.20;;
3379;SDS011;1703;51.964;7.642;2023-08-08T10:17:13;8.10;;;1.70;;
3379;SDS011;1703;51.964;7.642;2023-08-08T10:19:49;3.10;;;1.13;;
3379;SDS011;1703;51.964;7.642;2023-08-08T10:22:19;2.20;;;1.27;;
3379;SDS011;1703;51.964;7.642;2023-08-08T10:24:50;3.20;;;1.53;;
3379;SDS011;1703;51.964;7.642;2023-08-08T10:27:30;1.30;;;1.20;;
3379;SDS011;1703;51.964;7.642;2023-08-08T10:30:05;3.63;;;1.70;;
3379;SDS011;1703;51.964;7.642;2023-08-08T10:32:39;2.80;;;1.13;;
3379;SDS011;1703;51.964;7.642;2023-08-08T10:35:06;4.30;;;1.73;;
3379;SDS011;1703;51.964;7.642;2023-08-08T10:37:35;6.80;;;1.33;;
3379;SDS011;1703;51.964;7.642;2023-08-08T10:40:02;3.93;;;1.77;;
3379;SDS011;1703;51.964;7.642;2023-08-08T10:42:32;5.37;;;1.23;;
3379;SDS011;1703;51.964;7.642;2023-08-08T10:45:10;3.10;;;1.50;;
3379;SDS011;1703;51.964;7.642;2023-08-08T10:47:40;7.47;;;1.43;;
3379;SDS011;1703;51.964;7.642;2023-08-08T10:50:08;2.50;;;1.13;;
3379;SDS011;1703;51.964;7.642;2023-08-08T10:52:55;2.80;;;1.60;;
3379;SDS011;1703;51.964;7.642;2023-08-08T10:55:23;3.60;;;1.07;;
3379;SDS011;1703;51.964;7.642;2023-08-08T10:57:55;2.43;;;1.20;;
3379;SDS011;1703;51.964;7.642;2023-08-08T11:00:24;1.13;;;0.80;;
3379;SDS011;1703;51.964;7.642;2023-08-08T11:02:54;3.43;;;1.27;;
3379;SDS011;1703;51.964;7.642;2023-08-08T11:05:21;4.13;;;1.30;;
3379;SDS011;1703;51.964;7.642;2023-08-08T11:07:48;2.57;;;1.00;;
3379;SDS011;1703;51.964;7.642;2023-08-08T11:10:16;3.17;;;0.90;;
3379;SDS011;1703;51.964;7.642;2023-08-08T11:12:51;1.50;;;1.20;;
3379;SDS011;1703;51.964;7.642;2023-08-08T11:15:24;4.53;;;2.50;;
3379;SDS011;1703;51.964;7.642;2023-08-08T11:17:54;5.37;;;1.97;;
3379;SDS011;1703;51.964;7.642;2023-08-08T11:20:21;3.13;;;1.57;;
3379;SDS011;1703;51.964;7.642;2023-08-08T11:22:51;7.37;;;1.57;;
3379;SDS011;1703;51.964;7.642;2023-08-08T11:25:19;1.93;;;0.97;;
3379;SDS011;1703;51.964;7.642;2023-08-08T11:27:50;2.60;;;1.20;;
3379;SDS011;1703;51.964;7.642;2023-08-08T11:30:17;8.97;;;1.90;;
3379;SDS011;1703;51.964;7.642;2023-08-08T11:32:45;1.80;;;0.97;;
3379;SDS011;1703;51.964;7.642;2023-08-08T11:35:15;3.57;;;1.23;;
3379;SDS011;1703;51.964;7.642;2023-08-08T11:37:43;3.33;;;0.97;;
3379;SDS011;1703;51.964;7.642;2023-08-08T11:40:11;3.00;;;1.40;;
3379;SDS011;1703;51.964;7.642;2023-08-08T11:42:38;1.83;;;1.43;;
3379;SDS011;1703;51.964;7.642;2023-08-08T11:45:06;1.27;;;1.17;;
3379;SDS011;1703;51.964;7.642;2023-08-08T11:47:35;1.07;;;0.97;;
3379;SDS011;1703;51.964;7.642;2023-08-08T11:50:04;3.27;;;1.30;;
3379;SDS011;1703;51.964;7.642;2023-08-08T11:52:34;1.00;;;0.83;;
3379;SDS011;1703;51.964;7.642;2023-08-08T11:55:02;3.90;;;1.27;;
3379;SDS011;1703;51.964;7.642;2023-08-08T11:57:31;1.60;;;1.07;;
3379;SDS011;1703;51.964;7.642;2023-08-08T11:59:59;1.53;;;1.20;;
3379;SDS011;1703;51.964;7.642;2023-08-08T12:02:38;3.43;;;1.20;;
3379;SDS011;1703;51.964;7.642;2023-08-08T12:05:05;2.17;;;1.07;;
3379;SDS011;1703;51.964;7.642;2023-08-08T12:07:35;1.47;;;0.90;;
3379;SDS011;1703;51.964;7.642;2023-08-08T12:10:06;1.70;;;1.17;;
3379;SDS011;1703;51.964;7.642;2023-08-08T12:12:42;5.27;;;1.50;;
3379;SDS011;1703;51.964;7.642;2023-08-08T12:15:09;1.77;;;1.30;;
3379;SDS011;1703;51.964;7.642;2023-08-08T12:17:37;1.57;;;1.07;;
3379;SDS011;1703;51.964;7.642;2023-08-08T12:20:05;1.43;;;0.90;;
3379;SDS011;1703;51.964;7.642;2023-08-08T12:22:33;1.37;;;1.27;;
3379;SDS011;1703;51.964;7.642;2023-08-08T12:25:01;1.13;;;0.80;;
3379;SDS011;1703;51.964;7.642;2023-08-08T12:27:29;3.83;;;1.00;;
3379;SDS011;1703;51.964;7.642;2023-08-08T12:29:56;5.73;;;1.50;;
3379;SDS011;1703;51.964;7.642;2023-08-08T12:32:25;3.20;;;1.00;;
3379;SDS011;1703;51.964;7.642;2023-08-08T12:34:54;1.23;;;1.00;;
3379;SDS011;1703;51.964;7.642;2023-08-08T12:37:21;1.20;;;1.00;;
3379;SDS011;1703;51.964;7.642;2023-08-08T12:39:48;3.70;;;1.13;;
3379;SDS011;1703;51.964;7.642;2023-08-08T12:42:16;4.50;;;1.30;;
3379;SDS011;1703;51.964;7.642;2023-08-08T12:44:43;3.17;;;0.80;;
3379;SDS011;1703;51.964;7.642;2023-08-08T12:47:11;0.80;;;0.70;;
3379;SDS011;1703;51.964;7.642;2023-08-08T12:49:39;1.00;;;0.80;;
3379;SDS011;1703;51.964;7.642;2023-08-08T12:52:06;1.13;;;0.97;;
3379;SDS011;1703;51.964;7.642;2023-08-08T12:54:33;2.23;;;0.70;;
3379;SDS011;1703;51.964;7.642;2023-08-08T12:57:01;1.00;;;0.83;;
3379;SDS011;1703;51.964;7.642;2023-08-08T12:59:29;14.17;;;1.00;;
3379;SDS011;1703;51.964;7.642;2023-08-08T13:01:56;2.60;;;1.17;;
3379;SDS011;1703;51.964;7.642;2023-08-08T13:04:23;2.50;;;1.00;;
3379;SDS011;1703;51.964;7.642;2023-08-08T13:06:50;1.93;;;0.93;;
3379;SDS011;1703;51.964;7.642;2023-08-08T13:09:17;2.33;;;0.80;;
3379;SDS011;1703;51.964;7.642;2023-08-08T13:11:43;1.87;;;1.23;;
3379;SDS011;1703;51.964;7.642;2023-08-08T13:14:10;2.20;;;0.90;;
3379;SDS011;1703;51.964;7.642;2023-08-08T13:16:38;1.20;;;0.80;;
3379;SDS011;1703;51.964;7.642;2023-08-08T13:19:05;2.53;;;1.30;;
3379;SDS011;1703;51.964;7.642;2023-08-08T13:21:32;3.10;;;0.90;;
3379;SDS011;1703;51.964;7.642;2023-08-08T13:23:59;2.00;;;1.40;;
3379;SDS011;1703;51.964;7.642;2023-08-08T13:26:26;1.00;;;0.90;;
3379;SDS011;1703;51.964;7.642;2023-08-08T13:28:53;1.13;;;0.77;;
3379;SDS011;1703;51.964;7.642;2023-08-08T13:31:20;1.93;;;1.10;;
3379;SDS011;1703;51.964;7.642;2023-08-08T13:33:48;1.80;;;1.23;;
3379;SDS011;1703;51.964;7.642;2023-08-08T13:36:15;2.97;;;1.27;;
3379;SDS011;1703;51.964;7.642;2023-08-08T13:38:42;1.30;;;1.20;;
3379;SDS011;1703;51.964;7.642;2023-08-08T13:41:09;2.50;;;0.80;;
3379;SDS011;1703;51.964;7.642;2023-08-08T13:43:35;6.60;;;1.50;;
3379;SDS011;1703;51.964;7.642;2023-08-08T13:46:02;2.07;;;0.90;;
3379;SDS011;1703;51.964;7.642;2023-08-08T13:48:32;1.33;;;0.93;;
3379;SDS011;1703;51.964;7.642;2023-08-08T13:51:00;2.60;;;1.43;;
3379;SDS011;1703;51.964;7.642;2023-08-08T13:53:27;1.63;;;1.10;;
3379;SDS011;1703;51.964;7.642;2023-08-08T13:55:54;1.37;;;0.97;;
3379;SDS011;1703;51.964;7.642;2023-08-08T13:58:22;4.30;;;1.13;;
3379;SDS011;1703;51.964;7.642;2023-08-08T14:00:49;1.47;;;0.80;;
3379;SDS011;1703;51.964;7.642;2023-08-08T14:03:16;1.53;;;0.90;;
3379;SDS011;1703;51.964;7.642;2023-08-08T14:05:43;1.20;;;0.97;;
3379;SDS011;1703;51.964;7.642;2023-08-08T14:08:11;2.57;;;1.20;;
3379;SDS011;1703;51.964;7.642;2023-08-08T14:10:38;1.50;;;1.30;;
3379;SDS011;1703;51.964;7.642;2023-08-08T14:13:05;2.30;;;1.00;;
3379;SDS011;1703;51.964;7.642;2023-08-08T14:15:32;1.60;;;1.37;;
3379;SDS011;1703;51.964;7.642;2023-08-08T14:18:05;4.57;;;1.27;;
3379;SDS011;1703;51.964;7.642;2023-08-08T14:20:32;1.63;;;1.20;;
3379;SDS011;1703;51.964;7.642;2023-08-08T14:23:00;1.30;;;0.87;;
3379;SDS011;1703;51.964;7.642;2023-08-08T14:25:28;1.20;;;1.10;;
3379;SDS011;1703;51.964;7.642;2023-08-08T14:27:55;8.33;;;1.10;;
3379;SDS011;1703;51.964;7.642;2023-08-08T14:30:22;2.13;;;1.00;;
3379;SDS011;1703;51.964;7.642;2023-08-08T14:32:50;1.47;;;0.90;;
3379;SDS011;1703;51.964;7.642;2023-08-08T14:35:17;1.50;;;1.27;;
3379;SDS011;1703;51.964;7.642;2023-08-08T14:37:44;2.60;;;1.20;;
3379;SDS011;1703;51.964;7.642;2023-08-08T14:40:11;3.20;;;1.10;;
3379;SDS011;1703;51.964;7.642;2023-08-08T14:42:39;1.10;;;1.00;;
3379;SDS011;1703;51.964;7.642;2023-08-08T14:45:06;7.23;;;1.73;;
3379;SDS011;1703;51.964;7.642;2023-08-08T14:47:34;5.13;;;1.20;;
3379;SDS011;1703;51.964;7.642;2023-08-08T14:50:00;1.37;;;1.27;;
3379;SDS011;1703;51.964;7.642;2023-08-08T14:52:27;1.27;;;1.17;;
3379;SDS011;1703;51.964;7.642;2023-08-08T14:54:54;2.57;;;1.40;;
3379;SDS011;1703;51.964;7.642;2023-08-08T14:57:21;1.90;;;1.00;;
3379;SDS011;1703;51.964;7.642;2023-08-08T14:59:49;2.57;;;1.37;;
3379;SDS011;1703;51.964;7.642;2023-08-08T15:02:16;3.00;;;1.70;;
3379;SDS011;1703;51.964;7.642;2023-08-08T15:04:43;6.00;;;1.40;;
3379;SDS011;1703;51.964;7.642;2023-08-08T15:07:11;2.03;;;1.40;;
3379;SDS011;1703;51.964;7.642;2023-08-08T15:13:26;2.37;;;0.93;;
3379;SDS011;1703;51.964;7.642;2023-08-08T15:15:54;1.20;;;0.90;;
3379;SDS011;1703;51.964;7.642;2023-08-08T15:18:21;1.00;;;0.90;;
3379;SDS011;1703;51.964;7.642;2023-08-08T15:27:51;1.23;;;1.10;;